createdAt,value
2022-09-10T19:45:56.102Z,19.80
2022-09-10T19:49:01.517Z,19.83
2022-09-10T19:52:05.167Z,20.30
2022-09-10T19:55:09.728Z,22.57
2022-09-10T19:58:13.903Z,22.30
2022-09-10T20:01:20.810Z,24.53
2022-09-10T20:04:25.664Z,25.00
2022-09-10T20:07:31.124Z,24.20
2022-09-10T20:10:34.798Z,25.17
2022-09-10T20:13:38.522Z,23.37
2022-09-10T20:16:45.365Z,22.23
2022-09-10T20:19:49.136Z,20.13
2022-09-10T20:22:53.156Z,19.57
2022-09-10T20:25:56.760Z,16.30
2022-09-10T20:29:03.957Z,14.93
2022-09-10T20:32:08.965Z,14.00
2022-09-10T20:35:13.466Z,13.17
2022-09-10T20:38:17.695Z,12.93
2022-09-10T20:41:23.302Z,12.47
2022-09-10T20:44:27.292Z,12.27
2022-09-10T20:47:34.212Z,13.37
2022-09-10T20:50:37.839Z,12.57
2022-09-10T20:53:43.518Z,12.50
2022-09-10T20:56:47.490Z,13.87
2022-09-10T20:59:51.124Z,12.60
2022-09-10T21:02:56.167Z,11.87
2022-09-10T21:05:59.803Z,12.07
2022-09-10T21:09:04.809Z,12.43
2022-09-10T21:12:11.358Z,11.87
2022-09-10T21:15:15.831Z,12.17
2022-09-10T21:18:21.079Z,12.03
2022-09-10T21:21:27.031Z,12.97
2022-09-10T21:24:30.743Z,14.43
2022-09-10T21:27:34.440Z,16.33
2022-09-10T21:30:38.088Z,18.90
2022-09-10T21:33:45.239Z,21.80
2022-09-10T21:36:48.921Z,22.23
2022-09-10T21:39:53.027Z,25.30
2022-09-10T21:42:57.034Z,26.50
2022-09-10T21:46:03.016Z,31.97
2022-09-10T21:49:08.108Z,32.67
2022-09-10T21:52:12.007Z,31.03
2022-09-10T21:55:15.888Z,35.53
2022-09-10T21:58:19.559Z,35.03
2022-09-10T22:01:25.807Z,33.83
2022-09-10T22:04:30.917Z,35.53
2022-09-10T22:07:34.548Z,35.67
2022-09-10T22:10:41.648Z,43.97
2022-09-10T22:13:46.307Z,43.63
2022-09-10T22:16:50.740Z,46.87
2022-09-10T22:19:55.763Z,40.77
2022-09-10T22:22:59.588Z,43.40
2022-09-10T22:26:04.385Z,48.03
2022-09-10T22:29:08.091Z,44.90
2022-09-10T22:32:12.368Z,44.43
2022-09-10T22:35:17.739Z,44.20
2022-09-10T22:38:21.573Z,49.57
2022-09-10T22:41:25.316Z,46.70
2022-09-10T22:44:28.971Z,47.03
2022-09-10T22:47:32.822Z,42.63
2022-09-10T22:50:37.799Z,46.97
2022-09-10T22:53:43.274Z,45.30
2022-09-10T22:56:46.943Z,42.63
2022-09-10T22:59:50.579Z,44.33
2022-09-10T23:02:54.835Z,43.07
2022-09-10T23:06:06.264Z,39.20
2022-09-10T23:09:13.913Z,41.37
2022-09-10T23:12:22.140Z,40.23
2022-09-10T23:15:25.960Z,39.47
2022-09-10T23:18:29.641Z,41.23
2022-09-10T23:21:36.807Z,38.07
2022-09-10T23:24:40.534Z,40.60
2022-09-10T23:27:44.207Z,35.23
